sensor_id;sensor_type;location;lat;lon;timestamp;temperature;humidity
4215;DHT22;2121;48.062;7.850;2024-03-08T00:00:16;0.00;99.90
4215;DHT22;2121;48.062;7.850;2024-03-08T00:02:44;-0.10;99.90
4215;DHT22;2121;48.062;7.850;2024-03-08T00:05:11;0.00;99.90
4215;DHT22;2121;48.062;7.850;2024-03-08T00:07:39;0.00;99.90
4215;DHT22;2121;48.062;7.850;2024-03-08T00:10:09;-0.10;99.90
4215;DHT22;2121;48.062;7.850;2024-03-08T00:12:37;-0.10;99.90
4215;DHT22;2121;48.062;7.850;2024-03-08T00:15:04;-0.20;99.90
4215;DHT22;2121;48.062;7.850;2024-03-08T00:17:31;-0.30;99.90
4215;DHT22;2121;48.062;7.850;2024-03-08T00:19:57;-0.40;99.90
4215;DHT22;2121;48.062;7.850;2024-03-08T00:22:22;-0.30;99.90
4215;DHT22;2121;48.062;7.850;2024-03-08T00:24:48;-0.30;99.90
4215;DHT22;2121;48.062;7.850;2024-03-08T00:27:16;-0.30;99.90
4215;DHT22;2121;48.062;7.850;2024-03-08T00:29:41;-0.30;99.90
4215;DHT22;2121;48.062;7.850;2024-03-08T00:32:07;-0.30;99.90
4215;DHT22;2121;48.062;7.850;2024-03-08T00:34:35;-0.30;99.90
4215;DHT22;2121;48.062;7.850;2024-03-08T00:37:02;-0.20;99.90
4215;DHT22;2121;48.062;7.850;2024-03-08T00:39:29;-0.20;99.90
4215;DHT22;2121;48.062;7.850;2024-03-08T00:41:55;-0.30;99.90
4215;DHT22;2121;48.062;7.850;2024-03-08T00:44:20;-0.40;99.90
4215;DHT22;2121;48.062;7.850;2024-03-08T00:46:46;-0.50;99.90
4215;DHT22;2121;48.062;7.850;2024-03-08T00:49:12;-0.60;99.90
4215;DHT22;2121;48.062;7.850;2024-03-08T00:51:38;-0.60;99.90
4215;DHT22;2121;48.062;7.850;2024-03-08T00:54:04;-0.60;99.90
4215;DHT22;2121;48.062;7.850;2024-03-08T00:56:29;-0.60;99.90
4215;DHT22;2121;48.062;7.850;2024-03-08T00:58:55;-0.60;99.90
4215;DHT22;2121;48.062;7.850;2024-03-08T01:01:21;-0.60;99.90
4215;DHT22;2121;48.062;7.850;2024-03-08T01:03:47;-0.60;99.90
4215;DHT22;2121;48.062;7.850;2024-03-08T01:06:14;-0.60;99.90
4215;DHT22;2121;48.062;7.850;2024-03-08T01:08:40;-0.60;99.90
4215;DHT22;2121;48.062;7.850;2024-03-08T01:11:08;-0.60;99.90
4215;DHT22;2121;48.062;7.850;2024-03-08T01:13:34;-0.60;99.90
4215;DHT22;2121;48.062;7.850;2024-03-08T01:16:01;-0.60;99.90
4215;DHT22;2121;48.062;7.850;2024-03-08T01:18:27;-0.60;99.90
4215;DHT22;2121;48.062;7.850;2024-03-08T01:20:54;-0.70;99.90
4215;DHT22;2121;48.062;7.850;2024-03-08T01:23:19;-0.80;99.90
4215;DHT22;2121;48.062;7.850;2024-03-08T01:25:45;-0.90;99.90
4215;DHT22;2121;48.062;7.850;2024-03-08T01:28:11;-0.90;99.90
4215;DHT22;2121;48.062;7.850;2024-03-08T01:30:38;-1.00;99.90
4215;DHT22;2121;48.062;7.850;2024-03-08T01:33:04;-0.80;99.90
4215;DHT22;2121;48.062;7.850;2024-03-08T01:35:30;-0.80;99.90
4215;DHT22;2121;48.062;7.850;2024-03-08T01:37:56;-0.90;99.90
4215;DHT22;2121;48.062;7.850;2024-03-08T01:40:21;-0.90;99.90
4215;DHT22;2121;48.062;7.850;2024-03-08T01:42:48;-0.90;99.90
4215;DHT22;2121;48.062;7.850;2024-03-08T01:45:13;-0.90;99.90
4215;DHT22;2121;48.062;7.850;2024-03-08T01:47:39;-0.90;99.90
4215;DHT22;2121;48.062;7.850;2024-03-08T01:50:05;-0.90;99.90
4215;DHT22;2121;48.062;7.850;2024-03-08T01:52:32;-0.90;99.90
4215;DHT22;2121;48.062;7.850;2024-03-08T01:55:03;-1.10;99.90
4215;DHT22;2121;48.062;7.850;2024-03-08T01:57:32;-1.20;99.90
4215;DHT22;2121;48.062;7.850;2024-03-08T02:00:03;-1.20;99.90
4215;DHT22;2121;48.062;7.850;2024-03-08T02:02:32;-1.20;99.90
4215;DHT22;2121;48.062;7.850;2024-03-08T02:05:00;-1.10;99.90
4215;DHT22;2121;48.062;7.850;2024-03-08T02:07:26;-1.10;99.90
4215;DHT22;2121;48.062;7.850;2024-03-08T02:09:52;-1.10;99.90
4215;DHT22;2121;48.062;7.850;2024-03-08T02:12:18;-1.20;99.90
4215;DHT22;2121;48.062;7.850;2024-03-08T02:14:46;-1.20;99.90
4215;DHT22;2121;48.062;7.850;2024-03-08T02:17:12;-1.20;99.90
4215;DHT22;2121;48.062;7.850;2024-03-08T02:19:38;-1.10;99.90
4215;DHT22;2121;48.062;7.850;2024-03-08T02:22:04;-0.90;99.90
4215;DHT22;2121;48.062;7.850;2024-03-08T02:24:32;-1.10;99.90
4215;DHT22;2121;48.062;7.850;2024-03-08T02:26:58;-1.20;99.90
4215;DHT22;2121;48.062;7.850;2024-03-08T02:29:24;-1.20;99.90
4215;DHT22;2121;48.062;7.850;2024-03-08T02:31:53;-1.30;99.90
4215;DHT22;2121;48.062;7.850;2024-03-08T02:34:18;-1.30;99.90
4215;DHT22;2121;48.062;7.850;2024-03-08T02:36:45;-1.40;99.90
4215;DHT22;2121;48.062;7.850;2024-03-08T02:39:12;-1.40;99.90
4215;DHT22;2121;48.062;7.850;2024-03-08T02:41:38;-1.40;99.90
4215;DHT22;2121;48.062;7.850;2024-03-08T02:44:03;-1.40;99.90
4215;DHT22;2121;48.062;7.850;2024-03-08T02:46:29;-1.50;99.90
4215;DHT22;2121;48.062;7.850;2024-03-08T02:48:55;-1.50;99.90
4215;DHT22;2121;48.062;7.850;2024-03-08T02:51:21;-1.50;99.90
4215;DHT22;2121;48.062;7.850;2024-03-08T02:53:47;-1.50;99.90
4215;DHT22;2121;48.062;7.850;2024-03-08T02:56:14;-1.50;99.90
4215;DHT22;2121;48.062;7.850;2024-03-08T02:58:42;-1.50;99.90
4215;DHT22;2121;48.062;7.850;2024-03-08T03:01:08;-1.50;99.90
4215;DHT22;2121;48.062;7.850;2024-03-08T03:03:35;-1.50;99.90
4215;DHT22;2121;48.062;7.850;2024-03-08T03:06:02;-1.50;99.90
4215;DHT22;2121;48.062;7.850;2024-03-08T03:08:28;-1.50;99.90
4215;DHT22;2121;48.062;7.850;2024-03-08T03:10:53;-1.50;99.90
4215;DHT22;2121;48.062;7.850;2024-03-08T03:13:22;-1.50;99.90
4215;DHT22;2121;48.062;7.850;2024-03-08T03:15:48;-1.50;99.90
4215;DHT22;2121;48.062;7.850;2024-03-08T03:18:14;-1.60;99.90
4215;DHT22;2121;48.062;7.850;2024-03-08T03:20:41;-1.60;99.90
4215;DHT22;2121;48.062;7.850;2024-03-08T03:23:08;-1.50;99.90
4215;DHT22;2121;48.062;7.850;2024-03-08T03:25:34;-1.50;99.90
4215;DHT22;2121;48.062;7.850;2024-03-08T03:28:04;-1.60;99.90
4215;DHT22;2121;48.062;7.850;2024-03-08T03:30:30;-1.60;99.90
4215;DHT22;2121;48.062;7.850;2024-03-08T03:33:02;-1.70;99.90
4215;DHT22;2121;48.062;7.850;2024-03-08T03:35:32;-1.70;99.90
4215;DHT22;2121;48.062;7.850;2024-03-08T03:37:58;-1.70;99.90
4215;DHT22;2121;48.062;7.850;2024-03-08T03:40:33;-1.70;99.90
4215;DHT22;2121;48.062;7.850;2024-03-08T03:42:59;-1.70;99.90
4215;DHT22;2121;48.062;7.850;2024-03-08T03:45:26;-1.60;99.90
4215;DHT22;2121;48.062;7.850;2024-03-08T03:47:51;-1.60;99.90
4215;DHT22;2121;48.062;7.850;2024-03-08T03:50:18;-1.70;99.90
4215;DHT22;2121;48.062;7.850;2024-03-08T03:52:48;-1.70;99.90
4215;DHT22;2121;48.062;7.850;2024-03-08T03:55:14;-1.80;99.90
4215;DHT22;2121;48.062;7.850;2024-03-08T03:57:41;-1.80;99.90
4215;DHT22;2121;48.062;7.850;2024-03-08T04:00:07;-1.90;99.90
4215;DHT22;2121;48.062;7.850;2024-03-08T04:02:37;-1.90;99.90
4215;DHT22;2121;48.062;7.850;2024-03-08T04:05:05;-2.00;99.90
4215;DHT22;2121;48.062;7.850;2024-03-08T04:07:32;-2.00;99.90
4215;DHT22;2121;48.062;7.850;2024-03-08T04:09:57;-2.00;99.90
4215;DHT22;2121;48.062;7.850;2024-03-08T04:12:23;-2.00;99.90
4215;DHT22;2121;48.062;7.850;2024-03-08T04:14:49;-2.00;99.90
4215;DHT22;2121;48.062;7.850;2024-03-08T04:17:15;-2.00;99.90
4215;DHT22;2121;48.062;7.850;2024-03-08T04:19:40;-2.00;99.90
4215;DHT22;2121;48.062;7.850;2024-03-08T04:22:06;-2.00;99.90
4215;DHT22;2121;48.062;7.850;2024-03-08T04:24:33;-2.00;99.90
4215;DHT22;2121;48.062;7.850;2024-03-08T04:26:59;-1.90;99.90
4215;DHT22;2121;48.062;7.850;2024-03-08T04:29:25;-1.80;99.90
4215;DHT22;2121;48.062;7.850;2024-03-08T04:31:51;-1.80;99.90
4215;DHT22;2121;48.062;7.850;2024-03-08T04:34:20;-1.90;99.90
4215;DHT22;2121;48.062;7.850;2024-03-08T04:36:47;-2.00;99.90
4215;DHT22;2121;48.062;7.850;2024-03-08T04:39:13;-2.00;99.90
4215;DHT22;2121;48.062;7.850;2024-03-08T04:41:41;-2.00;99.90
4215;DHT22;2121;48.062;7.850;2024-03-08T04:44:12;-2.00;99.90
4215;DHT22;2121;48.062;7.850;2024-03-08T04:46:38;-1.90;99.90
4215;DHT22;2121;48.062;7.850;2024-03-08T04:49:04;-1.90;99.90
4215;DHT22;2121;48.062;7.850;2024-03-08T04:51:29;-1.90;99.90
4215;DHT22;2121;48.062;7.850;2024-03-08T04:53:55;-1.90;99.90
4215;DHT22;2121;48.062;7.850;2024-03-08T04:56:22;-1.80;99.90
4215;DHT22;2121;48.062;7.850;2024-03-08T04:58:48;-1.90;99.90
4215;DHT22;2121;48.062;7.850;2024-03-08T05:01:14;-2.00;99.90
4215;DHT22;2121;48.062;7.850;2024-03-08T05:03:41;-2.00;99.90
4215;DHT22;2121;48.062;7.850;2024-03-08T05:06:06;-2.00;99.90
4215;DHT22;2121;48.062;7.850;2024-03-08T05:08:32;-1.90;99.90
4215;DHT22;2121;48.062;7.850;2024-03-08T05:10:58;-1.80;99.90
4215;DHT22;2121;48.062;7.850;2024-03-08T05:13:24;-1.90;99.90
4215;DHT22;2121;48.062;7.850;2024-03-08T05:15:50;-2.00;99.90
4215;DHT22;2121;48.062;7.850;2024-03-08T05:18:16;-2.10;99.90
4215;DHT22;2121;48.062;7.850;2024-03-08T05:20:42;-2.20;99.90
4215;DHT22;2121;48.062;7.850;2024-03-08T05:23:07;-2.20;99.90
4215;DHT22;2121;48.062;7.850;2024-03-08T05:25:33;-2.20;99.90
4215;DHT22;2121;48.062;7.850;2024-03-08T05:27:59;-2.30;99.90
4215;DHT22;2121;48.062;7.850;2024-03-08T05:30:25;-2.30;99.90
4215;DHT22;2121;48.062;7.850;2024-03-08T05:32:50;-2.20;99.90
4215;DHT22;2121;48.062;7.850;2024-03-08T05:35:16;-2.20;99.90
4215;DHT22;2121;48.062;7.850;2024-03-08T05:37:42;-2.30;99.90
4215;DHT22;2121;48.062;7.850;2024-03-08T05:40:08;-2.30;99.90
4215;DHT22;2121;48.062;7.850;2024-03-08T05:42:37;-2.30;99.90
4215;DHT22;2121;48.062;7.850;2024-03-08T05:45:06;-2.30;99.90
4215;DHT22;2121;48.062;7.850;2024-03-08T05:47:32;-2.20;99.90
4215;DHT22;2121;48.062;7.850;2024-03-08T05:49:59;-2.30;99.90
4215;DHT22;2121;48.062;7.850;2024-03-08T05:52:24;-2.30;99.90
4215;DHT22;2121;48.062;7.850;2024-03-08T05:54:51;-2.30;99.90
4215;DHT22;2121;48.062;7.850;2024-03-08T05:57:17;-2.30;99.90
4215;DHT22;2121;48.062;7.850;2024-03-08T05:59:43;-2.30;99.90
4215;DHT22;2121;48.062;7.850;2024-03-08T06:02:08;-2.30;99.90
4215;DHT22;2121;48.062;7.850;2024-03-08T06:04:34;-2.30;99.90
4215;DHT22;2121;48.062;7.850;2024-03-08T06:07:00;-2.30;99.90
4215;DHT22;2121;48.062;7.850;2024-03-08T06:09:28;-2.30;99.90
4215;DHT22;2121;48.062;7.850;2024-03-08T06:11:54;-2.30;99.90
4215;DHT22;2121;48.062;7.850;2024-03-08T06:14:20;-2.20;99.90
4215;DHT22;2121;48.062;7.850;2024-03-08T06:16:46;-2.20;99.90
4215;DHT22;2121;48.062;7.850;2024-03-08T06:19:13;-2.10;99.90
4215;DHT22;2121;48.062;7.850;2024-03-08T06:21:39;-2.00;99.90
4215;DHT22;2121;48.062;7.850;2024-03-08T06:24:05;-1.90;99.90
4215;DHT22;2121;48.062;7.850;2024-03-08T06:26:31;-1.70;99.90
4215;DHT22;2121;48.062;7.850;2024-03-08T06:28:57;-1.40;99.90
4215;DHT22;2121;48.062;7.850;2024-03-08T06:31:23;-1.40;99.90
4215;DHT22;2121;48.062;7.850;2024-03-08T06:33:49;-1.30;99.90
4215;DHT22;2121;48.062;7.850;2024-03-08T06:36:18;-1.20;99.90
4215;DHT22;2121;48.062;7.850;2024-03-08T06:38:47;-1.10;99.90
4215;DHT22;2121;48.062;7.850;2024-03-08T06:41:13;-0.90;99.90
4215;DHT22;2121;48.062;7.850;2024-03-08T06:46:09;-0.70;99.90
4215;DHT22;2121;48.062;7.850;2024-03-08T06:48:35;-0.50;99.90
4215;DHT22;2121;48.062;7.850;2024-03-08T06:51:03;-0.40;99.90
4215;DHT22;2121;48.062;7.850;2024-03-08T06:53:31;-0.30;99.90
4215;DHT22;2121;48.062;7.850;2024-03-08T06:55:57;-0.10;99.90
4215;DHT22;2121;48.062;7.850;2024-03-08T06:58:24;0.00;99.90
4215;DHT22;2121;48.062;7.850;2024-03-08T07:00:50;0.10;99.90
4215;DHT22;2121;48.062;7.850;2024-03-08T07:03:18;0.20;99.90
4215;DHT22;2121;48.062;7.850;2024-03-08T07:05:44;0.40;99.90
4215;DHT22;2121;48.062;7.850;2024-03-08T07:08:10;0.60;99.90
4215;DHT22;2121;48.062;7.850;2024-03-08T07:10:39;0.70;99.90
4215;DHT22;2121;48.062;7.850;2024-03-08T07:13:07;0.70;99.90
4215;DHT22;2121;48.062;7.850;2024-03-08T07:15:33;0.80;99.90
4215;DHT22;2121;48.062;7.850;2024-03-08T07:18:01;0.90;99.90
4215;DHT22;2121;48.062;7.850;2024-03-08T07:20:27;0.90;99.90
4215;DHT22;2121;48.062;7.850;2024-03-08T07:22:54;1.00;99.90
4215;DHT22;2121;48.062;7.850;2024-03-08T07:25:20;1.10;99.90
4215;DHT22;2121;48.062;7.850;2024-03-08T07:27:53;1.20;99.90
4215;DHT22;2121;48.062;7.850;2024-03-08T07:30:21;1.30;99.90
4215;DHT22;2121;48.062;7.850;2024-03-08T07:33:07;1.30;99.90
4215;DHT22;2121;48.062;7.850;2024-03-08T07:35:33;1.40;99.90
4215;DHT22;2121;48.062;7.850;2024-03-08T07:38:03;1.60;99.90
4215;DHT22;2121;48.062;7.850;2024-03-08T07:40:31;1.70;99.90
4215;DHT22;2121;48.062;7.850;2024-03-08T07:42:58;1.90;99.90
4215;DHT22;2121;48.062;7.850;2024-03-08T07:45:24;1.90;99.90
4215;DHT22;2121;48.062;7.850;2024-03-08T07:47:49;2.00;99.90
4215;DHT22;2121;48.062;7.850;2024-03-08T07:50:16;2.10;99.90
4215;DHT22;2121;48.062;7.850;2024-03-08T07:52:42;2.20;99.90
4215;DHT22;2121;48.062;7.850;2024-03-08T07:55:09;2.30;99.90
4215;DHT22;2121;48.062;7.850;2024-03-08T07:57:35;2.50;99.90
4215;DHT22;2121;48.062;7.850;2024-03-08T08:00:04;2.60;99.90
4215;DHT22;2121;48.062;7.850;2024-03-08T08:02:33;2.70;99.90
4215;DHT22;2121;48.062;7.850;2024-03-08T08:04:59;2.80;99.90
4215;DHT22;2121;48.062;7.850;2024-03-08T08:07:25;2.90;99.90
4215;DHT22;2121;48.062;7.850;2024-03-08T08:09:52;3.10;99.90
4215;DHT22;2121;48.062;7.850;2024-03-08T08:12:18;3.20;99.90
4215;DHT22;2121;48.062;7.850;2024-03-08T08:14:45;3.30;99.90
4215;DHT22;2121;48.062;7.850;2024-03-08T08:17:12;3.50;99.90
4215;DHT22;2121;48.062;7.850;2024-03-08T08:19:37;3.60;99.90
4215;DHT22;2121;48.062;7.850;2024-03-08T08:22:06;3.60;99.90
4215;DHT22;2121;48.062;7.850;2024-03-08T08:24:34;3.70;99.90
4215;DHT22;2121;48.062;7.850;2024-03-08T08:27:02;3.70;99.90
4215;DHT22;2121;48.062;7.850;2024-03-08T08:29:28;3.70;99.90
4215;DHT22;2121;48.062;7.850;2024-03-08T08:31:54;3.60;99.90
4215;DHT22;2121;48.062;7.850;2024-03-08T08:34:20;3.80;99.90
4215;DHT22;2121;48.062;7.850;2024-03-08T08:36:49;3.80;99.90
4215;DHT22;2121;48.062;7.850;2024-03-08T08:39:14;3.90;99.90
4215;DHT22;2121;48.062;7.850;2024-03-08T08:41:42;3.90;99.90
4215;DHT22;2121;48.062;7.850;2024-03-08T08:44:08;3.90;99.90
4215;DHT22;2121;48.062;7.850;2024-03-08T08:46:36;3.90;99.90
4215;DHT22;2121;48.062;7.850;2024-03-08T08:49:03;4.00;99.90
4215;DHT22;2121;48.062;7.850;2024-03-08T08:51:30;4.10;99.90
4215;DHT22;2121;48.062;7.850;2024-03-08T08:53:56;4.20;99.90
4215;DHT22;2121;48.062;7.850;2024-03-08T08:56:22;4.40;99.90
4215;DHT22;2121;48.062;7.850;2024-03-08T08:58:48;4.40;99.90
4215;DHT22;2121;48.062;7.850;2024-03-08T09:01:14;4.50;99.90
4215;DHT22;2121;48.062;7.850;2024-03-08T09:03:40;4.70;99.90
4215;DHT22;2121;48.062;7.850;2024-03-08T09:06:09;4.90;99.90
4215;DHT22;2121;48.062;7.850;2024-03-08T09:08:38;5.10;99.90
4215;DHT22;2121;48.062;7.850;2024-03-08T09:11:05;5.20;99.90
4215;DHT22;2121;48.062;7.850;2024-03-08T09:13:31;5.30;99.90
4215;DHT22;2121;48.062;7.850;2024-03-08T09:15:57;5.40;99.90
4215;DHT22;2121;48.062;7.850;2024-03-08T09:18:26;5.50;99.90
4215;DHT22;2121;48.062;7.850;2024-03-08T09:20:51;5.60;99.90
4215;DHT22;2121;48.062;7.850;2024-03-08T09:23:22;5.80;99.90
4215;DHT22;2121;48.062;7.850;2024-03-08T09:25:47;5.80;99.90
4215;DHT22;2121;48.062;7.850;2024-03-08T09:28:13;5.70;99.90
4215;DHT22;2121;48.062;7.850;2024-03-08T09:30:39;5.90;99.90
4215;DHT22;2121;48.062;7.850;2024-03-08T09:33:05;6.10;99.90
4215;DHT22;2121;48.062;7.850;2024-03-08T09:35:32;6.30;99.90
4215;DHT22;2121;48.062;7.850;2024-03-08T09:37:58;6.30;99.90
4215;DHT22;2121;48.062;7.850;2024-03-08T09:40:23;6.50;99.90
4215;DHT22;2121;48.062;7.850;2024-03-08T09:42:51;6.60;99.90
4215;DHT22;2121;48.062;7.850;2024-03-08T09:45:20;6.50;99.90
4215;DHT22;2121;48.062;7.850;2024-03-08T09:47:48;6.40;99.90
4215;DHT22;2121;48.062;7.850;2024-03-08T09:50:16;6.20;99.90
4215;DHT22;2121;48.062;7.850;2024-03-08T09:52:44;6.50;99.90
4215;DHT22;2121;48.062;7.850;2024-03-08T09:55:12;6.70;99.90
4215;DHT22;2121;48.062;7.850;2024-03-08T09:57:39;7.00;99.90
4215;DHT22;2121;48.062;7.850;2024-03-08T10:00:06;6.90;99.90
4215;DHT22;2121;48.062;7.850;2024-03-08T10:02:50;7.00;99.90
4215;DHT22;2121;48.062;7.850;2024-03-08T10:05:18;7.20;99.90
4215;DHT22;2121;48.062;7.850;2024-03-08T10:07:44;7.10;99.90
4215;DHT22;2121;48.062;7.850;2024-03-08T10:10:09;7.00;99.90
4215;DHT22;2121;48.062;7.850;2024-03-08T10:12:38;7.20;99.90
4215;DHT22;2121;48.062;7.850;2024-03-08T10:15:07;7.30;99.90
4215;DHT22;2121;48.062;7.850;2024-03-08T10:17:35;7.50;99.90
4215;DHT22;2121;48.062;7.850;2024-03-08T10:20:00;7.60;99.90
4215;DHT22;2121;48.062;7.850;2024-03-08T10:22:26;7.80;99.90
4215;DHT22;2121;48.062;7.850;2024-03-08T10:24:52;7.80;99.90
4215;DHT22;2121;48.062;7.850;2024-03-08T10:27:18;7.80;99.90
4215;DHT22;2121;48.062;7.850;2024-03-08T10:29:48;8.00;99.90
4215;DHT22;2121;48.062;7.850;2024-03-08T10:32:13;8.20;99.90
4215;DHT22;2121;48.062;7.850;2024-03-08T10:34:39;8.30;99.90
4215;DHT22;2121;48.062;7.850;2024-03-08T10:37:07;8.30;99.90
4215;DHT22;2121;48.062;7.850;2024-03-08T10:39:47;8.50;99.90
4215;DHT22;2121;48.062;7.850;2024-03-08T10:42:27;8.70;99.90
4215;DHT22;2121;48.062;7.850;2024-03-08T10:45:04;8.70;99.90
4215;DHT22;2121;48.062;7.850;2024-03-08T10:47:40;8.60;99.90
4215;DHT22;2121;48.062;7.850;2024-03-08T10:50:19;8.80;99.90
4215;DHT22;2121;48.062;7.850;2024-03-08T10:52:49;9.10;99.90
4215;DHT22;2121;48.062;7.850;2024-03-08T10:55:16;8.60;99.90
4215;DHT22;2121;48.062;7.850;2024-03-08T10:57:43;8.60;99.90
4215;DHT22;2121;48.062;7.850;2024-03-08T11:00:10;8.50;99.90
4215;DHT22;2121;48.062;7.850;2024-03-08T11:02:37;8.50;99.90
4215;DHT22;2121;48.062;7.850;2024-03-08T11:05:03;8.70;99.90
4215;DHT22;2121;48.062;7.850;2024-03-08T11:07:34;9.10;99.90
4215;DHT22;2121;48.062;7.850;2024-03-08T11:10:03;9.50;99.90
4215;DHT22;2121;48.062;7.850;2024-03-08T11:12:37;9.40;99.90
4215;DHT22;2121;48.062;7.850;2024-03-08T11:15:10;9.40;99.90
4215;DHT22;2121;48.062;7.850;2024-03-08T11:22:52;9.70;99.90
4215;DHT22;2121;48.062;7.850;2024-03-08T11:25:41;9.80;99.90
4215;DHT22;2121;48.062;7.850;2024-03-08T11:28:21;9.90;99.90
4215;DHT22;2121;48.062;7.850;2024-03-08T11:33:36;10.00;99.90
4215;DHT22;2121;48.062;7.850;2024-03-08T11:36:32;9.60;99.90
4215;DHT22;2121;48.062;7.850;2024-03-08T11:39:01;10.00;99.90
4215;DHT22;2121;48.062;7.850;2024-03-08T11:41:34;10.10;99.90
4215;DHT22;2121;48.062;7.850;2024-03-08T11:44:04;10.30;99.90
4215;DHT22;2121;48.062;7.850;2024-03-08T11:46:30;10.60;99.90
4215;DHT22;2121;48.062;7.850;2024-03-08T11:48:56;10.80;99.90
4215;DHT22;2121;48.062;7.850;2024-03-08T11:51:22;10.50;99.90
4215;DHT22;2121;48.062;7.850;2024-03-08T11:53:49;10.60;99.90
4215;DHT22;2121;48.062;7.850;2024-03-08T11:56:18;10.80;99.90
4215;DHT22;2121;48.062;7.850;2024-03-08T11:58:54;10.90;99.90
4215;DHT22;2121;48.062;7.850;2024-03-08T12:01:22;10.90;99.90
4215;DHT22;2121;48.062;7.850;2024-03-08T12:03:56;11.00;99.90
4215;DHT22;2121;48.062;7.850;2024-03-08T12:06:24;11.30;99.90
4215;DHT22;2121;48.062;7.850;2024-03-08T12:08:51;11.30;99.90
4215;DHT22;2121;48.062;7.850;2024-03-08T12:11:23;11.10;99.90
4215;DHT22;2121;48.062;7.850;2024-03-08T12:13:49;11.20;99.90
4215;DHT22;2121;48.062;7.850;2024-03-08T12:16:18;11.90;99.90
4215;DHT22;2121;48.062;7.850;2024-03-08T12:18:44;12.10;99.90
4215;DHT22;2121;48.062;7.850;2024-03-08T12:21:11;11.80;99.90
4215;DHT22;2121;48.062;7.850;2024-03-08T12:23:39;11.30;99.90
4215;DHT22;2121;48.062;7.850;2024-03-08T12:26:23;11.40;99.90
4215;DHT22;2121;48.062;7.850;2024-03-08T12:28:49;11.60;99.90
4215;DHT22;2121;48.062;7.850;2024-03-08T12:31:16;11.90;99.90
4215;DHT22;2121;48.062;7.850;2024-03-08T12:33:53;12.30;99.90
4215;DHT22;2121;48.062;7.850;2024-03-08T12:36:20;12.40;99.90
4215;DHT22;2121;48.062;7.850;2024-03-08T12:38:47;12.00;99.90
4215;DHT22;2121;48.062;7.850;2024-03-08T12:41:16;11.80;99.90
4215;DHT22;2121;48.062;7.850;2024-03-08T12:43:44;12.00;99.90
4215;DHT22;2121;48.062;7.850;2024-03-08T12:46:19;12.70;99.90
4215;DHT22;2121;48.062;7.850;2024-03-08T12:48:55;12.10;99.90
4215;DHT22;2121;48.062;7.850;2024-03-08T12:51:21;12.20;99.90
4215;DHT22;2121;48.062;7.850;2024-03-08T12:53:47;12.20;99.90
4215;DHT22;2121;48.062;7.850;2024-03-08T12:56:29;12.20;99.90
4215;DHT22;2121;48.062;7.850;2024-03-08T12:58:56;12.10;99.90
4215;DHT22;2121;48.062;7.850;2024-03-08T13:01:22;12.20;99.90
4215;DHT22;2121;48.062;7.850;2024-03-08T13:03:48;12.50;99.90
4215;DHT22;2121;48.062;7.850;2024-03-08T13:06:15;12.70;99.90
4215;DHT22;2121;48.062;7.850;2024-03-08T13:08:41;12.90;99.90
4215;DHT22;2121;48.062;7.850;2024-03-08T13:11:09;12.90;99.90
4215;DHT22;2121;48.062;7.850;2024-03-08T13:13:37;13.00;99.90
4215;DHT22;2121;48.062;7.850;2024-03-08T13:16:08;13.30;99.90
4215;DHT22;2121;48.062;7.850;2024-03-08T13:18:35;13.20;99.90
4215;DHT22;2121;48.062;7.850;2024-03-08T13:21:01;12.80;99.90
4215;DHT22;2121;48.062;7.850;2024-03-08T13:23:37;12.50;99.90
4215;DHT22;2121;48.062;7.850;2024-03-08T13:26:13;12.60;99.90
4215;DHT22;2121;48.062;7.850;2024-03-08T13:28:47;13.00;99.90
4215;DHT22;2121;48.062;7.850;2024-03-08T13:31:22;12.80;99.90
4215;DHT22;2121;48.062;7.850;2024-03-08T13:33:48;12.80;99.90
4215;DHT22;2121;48.062;7.850;2024-03-08T13:36:14;13.30;99.90
4215;DHT22;2121;48.062;7.850;2024-03-08T13:38:44;13.70;99.90
4215;DHT22;2121;48.062;7.850;2024-03-08T13:41:11;13.80;99.90
4215;DHT22;2121;48.062;7.850;2024-03-08T13:43:43;13.20;99.90
4215;DHT22;2121;48.062;7.850;2024-03-08T13:46:09;12.90;99.90
4215;DHT22;2121;48.062;7.850;2024-03-08T13:48:36;12.90;99.90
4215;DHT22;2121;48.062;7.850;2024-03-08T13:51:06;13.10;99.90
4215;DHT22;2121;48.062;7.850;2024-03-08T13:53:33;13.20;99.90
4215;DHT22;2121;48.062;7.850;2024-03-08T13:56:02;13.40;99.90
4215;DHT22;2121;48.062;7.850;2024-03-08T13:58:28;13.70;99.90
4215;DHT22;2121;48.062;7.850;2024-03-08T14:00:54;13.90;99.90
4215;DHT22;2121;48.062;7.850;2024-03-08T14:03:21;14.00;99.90
4215;DHT22;2121;48.062;7.850;2024-03-08T14:05:47;13.90;99.90
4215;DHT22;2121;48.062;7.850;2024-03-08T14:08:12;13.60;99.90
4215;DHT22;2121;48.062;7.850;2024-03-08T14:10:39;13.30;99.90
4215;DHT22;2121;48.062;7.850;2024-03-08T14:13:05;13.60;99.90
4215;DHT22;2121;48.062;7.850;2024-03-08T14:15:32;13.70;99.90
4215;DHT22;2121;48.062;7.850;2024-03-08T14:17:58;13.80;99.90
4215;DHT22;2121;48.062;7.850;2024-03-08T14:20:25;13.20;99.90
4215;DHT22;2121;48.062;7.850;2024-03-08T14:22:56;12.90;99.90
4215;DHT22;2121;48.062;7.850;2024-03-08T14:25:23;13.40;99.90
4215;DHT22;2121;48.062;7.850;2024-03-08T14:27:50;14.20;99.90
4215;DHT22;2121;48.062;7.850;2024-03-08T14:30:24;13.90;99.90
4215;DHT22;2121;48.062;7.850;2024-03-08T14:33:04;14.20;99.90
4215;DHT22;2121;48.062;7.850;2024-03-08T14:35:38;14.10;99.90
4215;DHT22;2121;48.062;7.850;2024-03-08T14:38:06;14.10;99.90
4215;DHT22;2121;48.062;7.850;2024-03-08T14:40:36;13.70;99.90
4215;DHT22;2121;48.062;7.850;2024-03-08T14:43:03;13.80;99.90
4215;DHT22;2121;48.062;7.850;2024-03-08T14:45:30;13.70;99.90
4215;DHT22;2121;48.062;7.850;2024-03-08T14:47:56;13.90;99.90
4215;DHT22;2121;48.062;7.850;2024-03-08T14:50:23;13.60;99.90
4215;DHT22;2121;48.062;7.850;2024-03-08T14:52:50;13.20;99.90
4215;DHT22;2121;48.062;7.850;2024-03-08T14:55:18;13.10;99.90
4215;DHT22;2121;48.062;7.850;2024-03-08T14:57:48;13.30;99.90
4215;DHT22;2121;48.062;7.850;2024-03-08T15:00:17;13.50;99.90
4215;DHT22;2121;48.062;7.850;2024-03-08T15:02:54;13.20;99.90
4215;DHT22;2121;48.062;7.850;2024-03-08T15:05:19;13.20;99.90
4215;DHT22;2121;48.062;7.850;2024-03-08T15:07:47;13.30;99.90
4215;DHT22;2121;48.062;7.850;2024-03-08T15:10:13;13.40;99.90
4215;DHT22;2121;48.062;7.850;2024-03-08T15:12:46;13.30;99.90
4215;DHT22;2121;48.062;7.850;2024-03-08T15:15:14;13.40;99.90
4215;DHT22;2121;48.062;7.850;2024-03-08T15:17:44;13.50;99.90
4215;DHT22;2121;48.062;7.850;2024-03-08T15:20:12;13.60;99.90
4215;DHT22;2121;48.062;7.850;2024-03-08T15:22:43;13.60;99.90
4215;DHT22;2121;48.062;7.850;2024-03-08T15:25:10;13.60;99.90
4215;DHT22;2121;48.062;7.850;2024-03-08T15:27:46;13.40;99.90
4215;DHT22;2121;48.062;7.850;2024-03-08T15:30:13;13.30;99.90
4215;DHT22;2121;48.062;7.850;2024-03-08T15:32:45;13.50;99.90
4215;DHT22;2121;48.062;7.850;2024-03-08T15:35:16;13.70;99.90
4215;DHT22;2121;48.062;7.850;2024-03-08T15:37:43;14.00;99.90
4215;DHT22;2121;48.062;7.850;2024-03-08T15:40:11;14.30;99.80
4215;DHT22;2121;48.062;7.850;2024-03-08T15:42:55;14.90;99.70
4215;DHT22;2121;48.062;7.850;2024-03-08T15:45:23;16.10;99.20
4215;DHT22;2121;48.062;7.850;2024-03-08T15:47:50;17.40;97.70
4215;DHT22;2121;48.062;7.850;2024-03-08T15:50:16;18.40;96.60
4215;DHT22;2121;48.062;7.850;2024-03-08T15:52:46;18.70;95.50
4215;DHT22;2121;48.062;7.850;2024-03-08T15:55:19;19.40;95.10
4215;DHT22;2121;48.062;7.850;2024-03-08T15:57:48;21.30;94.00
4215;DHT22;2121;48.062;7.850;2024-03-08T16:00:19;24.00;93.00
4215;DHT22;2121;48.062;7.850;2024-03-08T16:03:11;25.70;88.20
4215;DHT22;2121;48.062;7.850;2024-03-08T16:05:38;24.40;85.20
4215;DHT22;2121;48.062;7.850;2024-03-08T16:08:07;22.80;86.70
4215;DHT22;2121;48.062;7.850;2024-03-08T16:10:43;21.00;88.30
4215;DHT22;2121;48.062;7.850;2024-03-08T16:13:23;19.90;89.80
4215;DHT22;2121;48.062;7.850;2024-03-08T16:15:54;19.50;90.60
4215;DHT22;2121;48.062;7.850;2024-03-08T16:18:22;18.40;91.30
4215;DHT22;2121;48.062;7.850;2024-03-08T16:20:53;18.70;91.60